sensor_id;sensor_type;location;lat;lon;timestamp;P1;durP1;ratioP1;P2;durP2;ratioP2
77248;SDS011;66280;45.124;20.718;2023-06-24T00:08:10;7.80;;;3.30;;
77248;SDS011;66280;45.124;20.718;2023-06-24T00:18:11;9.38;;;3.92;;
77248;SDS011;66280;45.124;20.718;2023-06-24T00:28:12;9.77;;;4.33;;
77248;SDS011;66280;45.124;20.718;2023-06-24T00:38:13;8.43;;;4.90;;
77248;SDS011;66280;45.124;20.718;2023-06-24T00:48:14;8.10;;;4.30;;
77248;SDS011;66280;45.124;20.718;2023-06-24T00:58:15;6.17;;;4.33;;
77248;SDS011;66280;45.124;20.718;2023-06-24T01:58:48;6.38;;;3.70;;
77248;SDS011;66280;45.124;20.718;2023-06-24T02:08:51;7.57;;;3.83;;
77248;SDS011;66280;45.124;20.718;2023-06-24T02:18:52;6.60;;;4.03;;
77248;SDS011;66280;45.124;20.718;2023-06-24T02:28:53;6.67;;;3.83;;
77248;SDS011;66280;45.124;20.718;2023-06-24T02:38:55;10.67;;;4.37;;
77248;SDS011;66280;45.124;20.718;2023-06-24T02:48:56;10.32;;;3.80;;
77248;SDS011;66280;45.124;20.718;2023-06-24T02:58:58;8.50;;;4.50;;
77248;SDS011;66280;45.124;20.718;2023-06-24T03:09:00;8.77;;;4.13;;
77248;SDS011;66280;45.124;20.718;2023-06-24T03:19:02;8.83;;;5.30;;
77248;SDS011;66280;45.124;20.718;2023-06-24T03:29:03;4.10;;;3.10;;
77248;SDS011;66280;45.124;20.718;2023-06-24T03:39:06;5.90;;;3.77;;
77248;SDS011;66280;45.124;20.718;2023-06-24T03:49:07;5.32;;;4.13;;
77248;SDS011;66280;45.124;20.718;2023-06-24T03:59:09;11.33;;;5.17;;
77248;SDS011;66280;45.124;20.718;2023-06-24T04:09:10;9.07;;;4.93;;
77248;SDS011;66280;45.124;20.718;2023-06-24T04:19:10;7.95;;;4.47;;
77248;SDS011;66280;45.124;20.718;2023-06-24T04:29:11;5.65;;;4.85;;
77248;SDS011;66280;45.124;20.718;2023-06-24T04:39:13;6.67;;;4.60;;
77248;SDS011;66280;45.124;20.718;2023-06-24T04:49:14;8.90;;;5.73;;
77248;SDS011;66280;45.124;20.718;2023-06-24T04:59:15;12.60;;;5.80;;
77248;SDS011;66280;45.124;20.718;2023-06-24T05:09:15;9.95;;;4.68;;
77248;SDS011;66280;45.124;20.718;2023-06-24T05:19:16;10.57;;;5.30;;
77248;SDS011;66280;45.124;20.718;2023-06-24T05:29:17;7.35;;;5.25;;
77248;SDS011;66280;45.124;20.718;2023-06-24T05:39:18;7.97;;;5.77;;
77248;SDS011;66280;45.124;20.718;2023-06-24T06:29:21;7.25;;;4.80;;
77248;SDS011;66280;45.124;20.718;2023-06-24T06:39:21;10.53;;;5.80;;
77248;SDS011;66280;45.124;20.718;2023-06-24T06:49:22;9.53;;;4.87;;
77248;SDS011;66280;45.124;20.718;2023-06-24T06:59:23;6.67;;;4.33;;
77248;SDS011;66280;45.124;20.718;2023-06-24T07:09:23;6.93;;;5.40;;
77248;SDS011;66280;45.124;20.718;2023-06-24T07:19:24;11.00;;;5.20;;
77248;SDS011;66280;45.124;20.718;2023-06-24T07:39:25;7.20;;;5.07;;
77248;SDS011;66280;45.124;20.718;2023-06-24T08:09:26;5.70;;;5.07;;
77248;SDS011;66280;45.124;20.718;2023-06-24T08:19:27;6.63;;;5.93;;
77248;SDS011;66280;45.124;20.718;2023-06-24T08:29:28;8.57;;;6.65;;
77248;SDS011;66280;45.124;20.718;2023-06-24T08:39:28;14.13;;;6.17;;
77248;SDS011;66280;45.124;20.718;2023-06-24T08:49:29;15.13;;;6.83;;
77248;SDS011;66280;45.124;20.718;2023-06-24T08:59:31;20.67;;;5.97;;
77248;SDS011;66280;45.124;20.718;2023-06-24T09:09:33;28.90;;;6.30;;
77248;SDS011;66280;45.124;20.718;2023-06-24T09:19:42;7.87;;;6.70;;
77248;SDS011;66280;45.124;20.718;2023-06-24T09:29:43;28.23;;;6.53;;
77248;SDS011;66280;45.124;20.718;2023-06-24T09:39:43;29.17;;;6.93;;
77248;SDS011;66280;45.124;20.718;2023-06-24T09:49:44;28.20;;;8.90;;
77248;SDS011;66280;45.124;20.718;2023-06-24T09:59:44;22.77;;;9.88;;
77248;SDS011;66280;45.124;20.718;2023-06-24T10:09:45;14.80;;;6.80;;
77248;SDS011;66280;45.124;20.718;2023-06-24T10:19:46;31.60;;;10.07;;
77248;SDS011;66280;45.124;20.718;2023-06-24T10:29:47;9.30;;;6.13;;
77248;SDS011;66280;45.124;20.718;2023-06-24T10:39:50;10.80;;;6.00;;
77248;SDS011;66280;45.124;20.718;2023-06-24T10:49:52;8.10;;;6.07;;
77248;SDS011;66280;45.124;20.718;2023-06-24T10:59:53;12.93;;;6.72;;
77248;SDS011;66280;45.124;20.718;2023-06-24T11:09:56;13.45;;;7.10;;
77248;SDS011;66280;45.124;20.718;2023-06-24T11:19:58;14.40;;;6.00;;
77248;SDS011;66280;45.124;20.718;2023-06-24T11:29:59;8.25;;;7.15;;
77248;SDS011;66280;45.124;20.718;2023-06-24T11:40:04;13.70;;;9.30;;
77248;SDS011;66280;45.124;20.718;2023-06-24T11:50:06;12.60;;;8.90;;
77248;SDS011;66280;45.124;20.718;2023-06-24T12:00:12;15.77;;;9.10;;
77248;SDS011;66280;45.124;20.718;2023-06-24T12:10:13;13.93;;;8.80;;
77248;SDS011;66280;45.124;20.718;2023-06-24T12:20:16;14.67;;;8.37;;
77248;SDS011;66280;45.124;20.718;2023-06-24T12:30:17;11.03;;;8.90;;
77248;SDS011;66280;45.124;20.718;2023-06-24T13:00:19;14.13;;;10.35;;
77248;SDS011;66280;45.124;20.718;2023-06-24T13:10:21;12.83;;;9.97;;
77248;SDS011;66280;45.124;20.718;2023-06-24T13:20:21;14.53;;;10.27;;
77248;SDS011;66280;45.124;20.718;2023-06-24T13:30:22;15.43;;;11.20;;
77248;SDS011;66280;45.124;20.718;2023-06-24T13:40:23;14.73;;;10.93;;
77248;SDS011;66280;45.124;20.718;2023-06-24T13:50:23;17.27;;;10.40;;
77248;SDS011;66280;45.124;20.718;2023-06-24T14:00:24;16.33;;;11.70;;
77248;SDS011;66280;45.124;20.718;2023-06-24T14:10:25;20.33;;;11.43;;
77248;SDS011;66280;45.124;20.718;2023-06-24T14:20:25;13.43;;;11.37;;
77248;SDS011;66280;45.124;20.718;2023-06-24T14:30:26;18.57;;;12.60;;
77248;SDS011;66280;45.124;20.718;2023-06-24T14:40:27;14.53;;;12.03;;
77248;SDS011;66280;45.124;20.718;2023-06-24T14:50:27;15.43;;;11.75;;
77248;SDS011;66280;45.124;20.718;2023-06-24T15:00:28;14.73;;;10.60;;
77248;SDS011;66280;45.124;20.718;2023-06-24T15:10:29;13.17;;;10.57;;
77248;SDS011;66280;45.124;20.718;2023-06-24T15:20:29;8.43;;;6.90;;
77248;SDS011;66280;45.124;20.718;2023-06-24T15:30:30;9.27;;;7.93;;
77248;SDS011;66280;45.124;20.718;2023-06-24T15:40:30;8.88;;;6.47;;
77248;SDS011;66280;45.124;20.718;2023-06-24T15:50:31;4.00;;;3.60;;
77248;SDS011;66280;45.124;20.718;2023-06-24T16:00:32;4.13;;;3.40;;
77248;SDS011;66280;45.124;20.718;2023-06-24T16:10:33;4.13;;;3.73;;
77248;SDS011;66280;45.124;20.718;2023-06-24T16:20:33;6.80;;;3.40;;
77248;SDS011;66280;45.124;20.718;2023-06-24T16:30:34;4.00;;;3.50;;
77248;SDS011;66280;45.124;20.718;2023-06-24T16:40:34;3.67;;;3.20;;
77248;SDS011;66280;45.124;20.718;2023-06-24T16:50:35;4.97;;;3.28;;
77248;SDS011;66280;45.124;20.718;2023-06-24T17:00:36;6.68;;;4.50;;
77248;SDS011;66280;45.124;20.718;2023-06-24T17:10:36;4.70;;;4.20;;
77248;SDS011;66280;45.124;20.718;2023-06-24T17:20:37;6.03;;;3.97;;
77248;SDS011;66280;45.124;20.718;2023-06-24T17:30:37;4.90;;;4.50;;
77248;SDS011;66280;45.124;20.718;2023-06-24T17:40:40;4.37;;;3.17;;
77248;SDS011;66280;45.124;20.718;2023-06-24T17:50:40;4.65;;;4.25;;
77248;SDS011;66280;45.124;20.718;2023-06-24T18:00:41;4.27;;;3.90;;
77248;SDS011;66280;45.124;20.718;2023-06-24T18:10:42;4.10;;;3.60;;
77248;SDS011;66280;45.124;20.718;2023-06-24T18:20:44;3.60;;;3.13;;
77248;SDS011;66280;45.124;20.718;2023-06-24T18:30:44;5.73;;;3.40;;
77248;SDS011;66280;45.124;20.718;2023-06-24T18:40:45;3.83;;;3.30;;
77248;SDS011;66280;45.124;20.718;2023-06-24T18:50:46;4.35;;;3.30;;
77248;SDS011;66280;45.124;20.718;2023-06-24T19:00:47;4.57;;;4.17;;
77248;SDS011;66280;45.124;20.718;2023-06-24T19:10:48;3.80;;;3.50;;
77248;SDS011;66280;45.124;20.718;2023-06-24T19:20:48;4.33;;;3.67;;
77248;SDS011;66280;45.124;20.718;2023-06-24T19:30:49;4.00;;;3.67;;
77248;SDS011;66280;45.124;20.718;2023-06-24T19:40:50;3.80;;;3.40;;
77248;SDS011;66280;45.124;20.718;2023-06-24T19:50:50;4.00;;;3.60;;
77248;SDS011;66280;45.124;20.718;2023-06-24T20:00:51;4.27;;;3.90;;
77248;SDS011;66280;45.124;20.718;2023-06-24T20:10:52;4.67;;;3.40;;
77248;SDS011;66280;45.124;20.718;2023-06-24T20:20:52;4.53;;;4.13;;
77248;SDS011;66280;45.124;20.718;2023-06-24T20:30:53;3.80;;;3.50;;
77248;SDS011;66280;45.124;20.718;2023-06-24T20:40:54;4.90;;;3.60;;
77248;SDS011;66280;45.124;20.718;2023-06-24T20:50:54;4.15;;;3.85;;
77248;SDS011;66280;45.124;20.718;2023-06-24T21:00:55;3.77;;;3.47;;
77248;SDS011;66280;45.124;20.718;2023-06-24T21:10:56;4.77;;;3.57;;
77248;SDS011;66280;45.124;20.718;2023-06-24T21:20:57;3.75;;;3.45;;
77248;SDS011;66280;45.124;20.718;2023-06-24T21:30:58;5.22;;;3.83;;
77248;SDS011;66280;45.124;20.718;2023-06-24T21:40:58;5.32;;;3.70;;
77248;SDS011;66280;45.124;20.718;2023-06-24T21:50:59;3.33;;;3.13;;
77248;SDS011;66280;45.124;20.718;2023-06-24T22:01:00;3.57;;;3.23;;
77248;SDS011;66280;45.124;20.718;2023-06-24T22:11:00;3.08;;;2.88;;
77248;SDS011;66280;45.124;20.718;2023-06-24T22:21:01;6.63;;;3.78;;
77248;SDS011;66280;45.124;20.718;2023-06-24T22:31:01;5.00;;;3.93;;
77248;SDS011;66280;45.124;20.718;2023-06-24T22:41:02;4.60;;;4.20;;
77248;SDS011;66280;45.124;20.718;2023-06-24T22:51:03;5.37;;;4.33;;
77248;SDS011;66280;45.124;20.718;2023-06-24T23:01:03;4.50;;;4.20;;
77248;SDS011;66280;45.124;20.718;2023-06-24T23:11:04;5.68;;;4.97;;
77248;SDS011;66280;45.124;20.718;2023-06-24T23:21:05;5.03;;;4.63;;
77248;SDS011;66280;45.124;20.718;2023-06-24T23:31:06;5.27;;;4.87;;
77248;SDS011;66280;45.124;20.718;2023-06-24T23:41:06;5.35;;;4.95;;
77248;SDS011;66280;45.124;20.718;2023-06-24T23:51:07;5.77;;;5.27;;
